createdAt,value
2018-09-27T00:00:34.946Z,34.78
2018-09-27T00:01:34.901Z,35.16
2018-09-27T00:02:34.855Z,34.77
2018-09-27T00:03:34.910Z,35.08
2018-09-27T00:04:34.764Z,35.08
2018-09-27T00:05:34.721Z,34.98
2018-09-27T00:06:34.672Z,34.88
2018-09-27T00:07:34.626Z,34.88
2018-09-27T00:08:34.580Z,34.88
2018-09-27T00:09:34.534Z,34.77
2018-09-27T00:10:34.488Z,35.17
2018-09-27T00:11:34.443Z,34.98
2018-09-27T00:12:34.396Z,35.08
2018-09-27T00:13:34.351Z,35.08
2018-09-27T00:14:34.307Z,34.88
2018-09-27T00:15:34.260Z,35.08
2018-09-27T00:16:34.214Z,34.96
2018-09-27T00:17:34.486Z,34.98
2018-09-27T00:18:34.122Z,35.08
2018-09-27T00:19:34.147Z,34.98
2018-09-27T00:20:34.030Z,34.98
2018-09-27T00:21:33.984Z,34.98
2018-09-27T00:22:33.945Z,34.98
2018-09-27T00:23:33.898Z,35.08
2018-09-27T00:24:33.846Z,34.98
2018-09-27T00:25:33.801Z,35.08
2018-09-27T00:26:33.755Z,35.08
2018-09-27T00:27:33.711Z,35.27
2018-09-27T00:28:33.663Z,35.08
2018-09-27T00:29:33.618Z,35.17
2018-09-27T00:30:33.572Z,35.17
2018-09-27T00:31:33.526Z,35.08
2018-09-27T00:32:33.479Z,35.08
2018-09-27T00:33:33.434Z,35.08
2018-09-27T00:34:33.388Z,35.08
2018-09-27T00:35:33.342Z,35.16
2018-09-27T00:36:33.296Z,34.98
2018-09-27T00:37:33.250Z,34.96
2018-09-27T00:38:33.205Z,34.98
2018-09-27T00:39:33.170Z,35.08
2018-09-27T00:40:33.112Z,35.08
2018-09-27T00:41:33.069Z,35.08
2018-09-27T00:42:33.021Z,34.98
2018-09-27T00:43:32.977Z,35.08
2018-09-27T00:44:32.929Z,35.17
2018-09-27T00:45:32.939Z,35.17
2018-09-27T00:46:32.838Z,35.08
2018-09-27T00:47:32.791Z,35.17
2018-09-27T00:48:32.746Z,35.27
2018-09-27T00:49:32.699Z,35.08
2018-09-27T00:50:32.656Z,35.25
2018-09-27T00:51:32.608Z,35.17
2018-09-27T00:52:32.562Z,35.08
2018-09-27T00:53:32.516Z,35.06
2018-09-27T00:54:32.470Z,34.88
2018-09-27T00:55:32.424Z,35.08
2018-09-27T00:56:32.379Z,34.98
2018-09-27T00:57:32.336Z,35.08
2018-09-27T00:58:32.287Z,35.08
2018-09-27T00:59:32.256Z,35.08
2018-09-27T01:00:32.205Z,34.98
2018-09-27T01:01:32.148Z,35.08
2018-09-27T01:02:32.105Z,34.98
2018-09-27T01:03:32.058Z,35.08
2018-09-27T01:04:32.010Z,34.88
2018-09-27T01:05:31.967Z,34.88
2018-09-27T01:06:31.919Z,34.88
2018-09-27T01:07:31.874Z,35.08
2018-09-27T01:08:31.878Z,34.88
2018-09-27T01:09:31.782Z,34.98
2018-09-27T01:10:31.736Z,34.96
2018-09-27T01:11:31.690Z,35.08
2018-09-27T01:12:31.643Z,34.98
2018-09-27T01:13:31.598Z,34.88
2018-09-27T01:14:31.552Z,35.08
2018-09-27T01:15:31.510Z,34.88
2018-09-27T01:16:31.464Z,34.88
2018-09-27T01:17:31.417Z,34.98
2018-09-27T01:18:31.369Z,34.78
2018-09-27T01:19:31.323Z,34.88
2018-09-27T01:20:31.277Z,34.98
2018-09-27T01:21:31.231Z,34.88
2018-09-27T01:22:31.186Z,35.27
2018-09-27T01:23:31.140Z,35.36
2018-09-27T01:24:31.099Z,35.27
2018-09-27T01:25:31.048Z,35.27
2018-09-27T01:26:31.002Z,35.27
2018-09-27T01:27:30.956Z,35.16
2018-09-27T01:28:30.910Z,35.56
2018-09-27T01:29:30.864Z,35.46
2018-09-27T01:30:30.819Z,35.27
2018-09-27T01:31:30.772Z,35.46
2018-09-27T01:32:30.726Z,35.27
2018-09-27T01:33:30.681Z,35.36
2018-09-27T01:34:30.635Z,35.46
2018-09-27T01:35:30.589Z,35.46
2018-09-27T01:36:30.542Z,35.46
2018-09-27T01:37:30.497Z,35.56
2018-09-27T01:38:30.451Z,35.65
2018-09-27T01:39:30.405Z,35.65
2018-09-27T01:40:30.368Z,35.65
2018-09-27T01:41:30.313Z,35.75
2018-09-27T01:42:30.268Z,35.46
2018-09-27T01:43:30.227Z,35.56
2018-09-27T01:44:30.176Z,35.56
2018-09-27T01:45:30.130Z,35.54
2018-09-27T01:46:30.084Z,35.56
2018-09-27T01:47:30.045Z,35.75
2018-09-27T01:48:30.353Z,35.56
2018-09-27T01:49:30.290Z,35.65
2018-09-27T01:50:30.221Z,35.75
2018-09-27T01:51:29.858Z,35.85
2018-09-27T01:52:29.808Z,35.65
2018-09-27T01:53:29.762Z,35.65
2018-09-27T01:54:29.716Z,35.65
2018-09-27T01:55:29.672Z,35.65
2018-09-27T01:56:29.625Z,35.75
2018-09-27T01:57:29.579Z,35.75
2018-09-27T01:58:29.534Z,35.44
2018-09-27T01:59:29.488Z,35.75
2018-09-27T02:00:29.441Z,35.83
2018-09-27T02:01:29.396Z,35.54
2018-09-27T02:02:29.351Z,35.85
2018-09-27T02:03:29.304Z,35.85
2018-09-27T02:04:29.261Z,35.75
2018-09-27T02:05:29.213Z,35.75
2018-09-27T02:06:29.169Z,35.75
2018-09-27T02:07:29.121Z,35.75
2018-09-27T02:08:29.081Z,35.73
2018-09-27T02:09:29.080Z,35.85
2018-09-27T02:10:28.984Z,35.94
2018-09-27T02:11:28.938Z,35.65
2018-09-27T02:12:28.891Z,35.85
2018-09-27T02:13:28.846Z,35.85
2018-09-27T02:14:28.800Z,35.85
2018-09-27T02:15:28.755Z,35.94
2018-09-27T02:16:28.708Z,36.04
2018-09-27T02:17:28.664Z,35.85
2018-09-27T02:18:28.617Z,35.94
2018-09-27T02:19:28.573Z,36.13
2018-09-27T02:20:28.525Z,36.04
2018-09-27T02:21:28.479Z,36.02
2018-09-27T02:22:28.433Z,35.94
2018-09-27T02:23:28.388Z,35.85
2018-09-27T02:24:28.342Z,35.94
2018-09-27T02:25:28.296Z,35.94
2018-09-27T02:26:28.249Z,35.94
2018-09-27T02:27:28.208Z,35.85
2018-09-27T02:28:28.158Z,35.85
2018-09-27T02:29:28.112Z,36.04
2018-09-27T02:30:28.068Z,35.94
2018-09-27T02:31:28.031Z,35.75
2018-09-27T02:32:27.975Z,35.85
2018-09-27T02:33:27.930Z,36.13
2018-09-27T02:34:27.883Z,35.85
2018-09-27T02:35:27.839Z,36.23
2018-09-27T02:36:27.795Z,36.13
2018-09-27T02:37:27.746Z,36.13
2018-09-27T02:38:27.701Z,36.13
2018-09-27T02:39:27.654Z,36.04
2018-09-27T02:40:27.611Z,36.04
2018-09-27T02:41:27.563Z,36.02
2018-09-27T02:42:27.517Z,36.13
2018-09-27T02:43:27.471Z,36.13
2018-09-27T02:44:27.425Z,35.94
2018-09-27T02:45:27.382Z,36.04
2018-09-27T02:46:27.336Z,36.04
2018-09-27T02:47:27.288Z,36.04
2018-09-27T02:48:27.241Z,35.94
2018-09-27T02:49:27.196Z,35.94
2018-09-27T02:50:27.150Z,36.04
2018-09-27T02:51:27.104Z,35.94
2018-09-27T02:52:27.058Z,36.13
2018-09-27T02:53:27.012Z,36.21
2018-09-27T02:54:26.966Z,36.04
2018-09-27T02:55:26.921Z,36.11
2018-09-27T02:56:26.874Z,36.04
2018-09-27T02:57:26.829Z,36.13
2018-09-27T02:58:26.787Z,36.23
2018-09-27T02:59:26.740Z,36.04
2018-09-27T03:00:26.695Z,36.23
2018-09-27T03:01:26.645Z,36.13
2018-09-27T03:02:26.600Z,36.13
2018-09-27T03:03:26.554Z,36.13
2018-09-27T03:04:26.508Z,36.23
2018-09-27T03:05:26.462Z,36.13
2018-09-27T03:06:26.419Z,36.11
2018-09-27T03:07:26.371Z,36.23
2018-09-27T03:08:26.324Z,36.04
2018-09-27T03:09:26.279Z,36.23
2018-09-27T03:10:26.233Z,36.33
2018-09-27T03:11:26.187Z,36.04
2018-09-27T03:12:26.144Z,36.04
2018-09-27T03:13:26.097Z,36.33
2018-09-27T03:14:26.050Z,36.11
2018-09-27T03:15:26.006Z,36.43
2018-09-27T03:16:25.958Z,36.43
2018-09-27T03:17:25.912Z,36.04
2018-09-27T03:18:25.866Z,36.13
2018-09-27T03:19:25.821Z,36.43
2018-09-27T03:20:25.777Z,36.43
2018-09-27T03:21:25.729Z,36.52
2018-09-27T03:22:25.683Z,36.43
2018-09-27T03:23:25.637Z,36.52
2018-09-27T03:24:25.594Z,36.41
2018-09-27T03:25:25.545Z,36.52
2018-09-27T03:26:25.500Z,36.52
2018-09-27T03:27:25.457Z,36.52
2018-09-27T03:28:25.407Z,36.61
2018-09-27T03:29:25.362Z,36.52
2018-09-27T03:30:25.317Z,36.52
2018-09-27T03:31:25.271Z,36.60
2018-09-27T03:32:25.224Z,36.61
2018-09-27T03:33:25.179Z,36.52
2018-09-27T03:34:25.133Z,36.61
2018-09-27T03:35:25.091Z,36.52
2018-09-27T03:36:25.041Z,36.43
2018-09-27T03:37:24.998Z,36.52
2018-09-27T03:38:24.950Z,36.61
2018-09-27T03:39:24.904Z,36.43
2018-09-27T03:40:24.866Z,36.52
2018-09-27T03:41:24.812Z,36.43
2018-09-27T03:42:24.767Z,36.60
2018-09-27T03:43:24.728Z,36.43
2018-09-27T03:44:24.674Z,36.43
2018-09-27T03:45:24.632Z,36.43
2018-09-27T03:46:24.583Z,36.41
2018-09-27T03:47:24.540Z,36.33
2018-09-27T03:48:24.491Z,36.33
2018-09-27T03:49:24.445Z,36.43
2018-09-27T03:50:24.400Z,36.52
2018-09-27T03:51:24.354Z,36.33
2018-09-27T03:52:24.307Z,36.33
2018-09-27T03:53:24.261Z,36.43
2018-09-27T03:54:24.216Z,36.33
2018-09-27T03:55:24.174Z,36.23
2018-09-27T03:56:24.123Z,36.23
2018-09-27T03:57:24.078Z,36.23
2018-09-27T03:58:24.033Z,36.33
2018-09-27T03:59:23.987Z,36.33
2018-09-27T04:00:23.991Z,36.33
2018-09-27T04:01:23.896Z,36.33
2018-09-27T04:02:23.849Z,36.23
2018-09-27T04:03:23.981Z,36.33
2018-09-27T04:04:23.758Z,36.23
2018-09-27T04:05:23.711Z,36.13
2018-09-27T04:06:23.664Z,36.33
2018-09-27T04:07:23.620Z,36.23
2018-09-27T04:08:23.574Z,36.11
2018-09-27T04:09:23.528Z,36.23
2018-09-27T04:10:23.482Z,36.23
2018-09-27T04:11:23.438Z,36.23
2018-09-27T04:12:23.390Z,36.13
2018-09-27T04:13:23.349Z,36.43
2018-09-27T04:14:23.299Z,36.33
2018-09-27T04:15:23.253Z,36.43
2018-09-27T04:16:23.206Z,36.61
2018-09-27T04:17:23.164Z,36.43
2018-09-27T04:18:23.119Z,36.52
2018-09-27T04:19:23.069Z,36.61
2018-09-27T04:20:23.024Z,36.71
2018-09-27T04:21:22.977Z,36.61
2018-09-27T04:22:22.932Z,36.61
2018-09-27T04:23:22.886Z,36.61
2018-09-27T04:24:22.840Z,36.61
2018-09-27T04:25:22.795Z,36.61
2018-09-27T04:26:22.748Z,36.71
2018-09-27T04:27:22.703Z,36.71
2018-09-27T04:28:22.656Z,36.71
2018-09-27T04:29:22.611Z,36.71
2018-09-27T04:30:22.566Z,36.71
2018-09-27T04:31:22.519Z,36.71
2018-09-27T04:32:22.476Z,36.61
2018-09-27T04:33:22.427Z,36.71
2018-09-27T04:34:22.382Z,36.81
2018-09-27T04:35:22.337Z,36.81
2018-09-27T04:36:22.290Z,36.79
2018-09-27T04:37:22.244Z,36.52
2018-09-27T04:38:22.199Z,36.71
2018-09-27T04:39:22.154Z,36.81
2018-09-27T04:40:22.111Z,36.91
2018-09-27T04:41:22.066Z,36.91
2018-09-27T04:42:22.022Z,37.01
2018-09-27T04:43:21.969Z,36.71
2018-09-27T04:44:21.923Z,37.01
2018-09-27T04:45:21.877Z,36.71
2018-09-27T04:46:21.832Z,37.01
2018-09-27T04:47:21.786Z,36.71
2018-09-27T04:48:21.742Z,36.71
2018-09-27T04:49:21.694Z,36.71
2018-09-27T04:50:21.648Z,36.81
2018-09-27T04:51:21.602Z,36.52
2018-09-27T04:52:21.556Z,36.61
2018-09-27T04:53:21.513Z,36.71
2018-09-27T04:54:21.501Z,36.71
2018-09-27T04:55:21.418Z,36.81
2018-09-27T04:56:21.374Z,36.91
2018-09-27T04:57:21.328Z,36.91
2018-09-27T04:58:21.284Z,37.19
2018-09-27T04:59:21.236Z,37.01
2018-09-27T05:00:21.190Z,37.01
2018-09-27T05:01:21.144Z,37.01
2018-09-27T05:02:21.098Z,36.71
2018-09-27T05:03:21.053Z,36.71
2018-09-27T05:04:21.006Z,37.01
2018-09-27T05:05:20.960Z,36.71
2018-09-27T05:06:20.971Z,36.81
2018-09-27T05:07:20.870Z,37.01
2018-09-27T05:08:20.823Z,36.81
2018-09-27T05:09:20.777Z,37.01
2018-09-27T05:10:20.732Z,36.81
2018-09-27T05:11:20.686Z,36.81
2018-09-27T05:12:20.640Z,36.91
2018-09-27T05:13:20.594Z,36.71
2018-09-27T05:14:20.548Z,37.29
2018-09-27T05:15:20.503Z,37.01
2018-09-27T05:16:20.456Z,36.81
2018-09-27T05:17:20.412Z,37.29
2018-09-27T05:18:20.365Z,37.29
2018-09-27T05:19:20.320Z,37.29
2018-09-27T05:20:20.304Z,37.29
2018-09-27T05:21:20.228Z,37.29
2018-09-27T05:22:20.182Z,37.29
2018-09-27T05:23:20.144Z,37.10
2018-09-27T05:24:20.090Z,37.10
2018-09-27T05:25:20.048Z,37.10
2018-09-27T05:26:19.999Z,37.10
2018-09-27T05:27:20.032Z,37.10
2018-09-27T05:28:19.906Z,37.01
2018-09-27T05:29:19.861Z,37.01
2018-09-27T05:30:19.815Z,36.91
2018-09-27T05:31:19.770Z,36.91
2018-09-27T05:32:19.723Z,37.01
2018-09-27T05:33:19.677Z,36.91
2018-09-27T05:34:19.632Z,37.01
2018-09-27T05:35:19.590Z,37.01
2018-09-27T05:36:19.540Z,37.01
2018-09-27T05:37:19.495Z,37.37
2018-09-27T05:38:19.449Z,37.46
2018-09-27T05:39:19.403Z,37.39
2018-09-27T05:40:19.357Z,37.29
2018-09-27T05:41:19.311Z,37.19
2018-09-27T05:42:19.266Z,37.29
2018-09-27T05:43:19.221Z,37.29
2018-09-27T05:44:19.174Z,37.27
2018-09-27T05:45:19.129Z,37.29
2018-09-27T05:46:19.083Z,37.29
2018-09-27T05:47:19.038Z,37.39
2018-09-27T05:48:18.993Z,37.29
2018-09-27T05:49:18.949Z,37.58
2018-09-27T05:50:18.906Z,37.39
2018-09-27T05:51:18.853Z,37.58
2018-09-27T05:52:18.807Z,37.10
2018-09-27T05:53:18.766Z,37.58
2018-09-27T05:54:18.717Z,37.10
2018-09-27T05:55:18.671Z,37.19
2018-09-27T05:56:18.629Z,37.19
2018-09-27T05:57:18.579Z,37.10
2018-09-27T05:58:18.534Z,37.19
2018-09-27T05:59:18.488Z,37.10
2018-09-27T06:00:18.441Z,37.10
2018-09-27T06:01:18.395Z,37.19
2018-09-27T06:02:18.353Z,37.10
2018-09-27T06:03:18.354Z,36.81
2018-09-27T06:04:18.258Z,37.19
2018-09-27T06:05:18.212Z,37.01
2018-09-27T06:06:18.167Z,37.19
2018-09-27T06:07:18.121Z,36.91
2018-09-27T06:08:18.078Z,37.68
2018-09-27T06:09:18.029Z,37.10
2018-09-27T06:10:17.983Z,37.58
2018-09-27T06:11:18.000Z,37.39
2018-09-27T06:12:17.892Z,37.58
2018-09-27T06:13:17.846Z,37.48
2018-09-27T06:14:17.803Z,37.58
2018-09-27T06:15:17.757Z,37.39
2018-09-27T06:16:17.710Z,37.58
2018-09-27T06:17:17.669Z,37.58
2018-09-27T06:18:17.616Z,37.39
2018-09-27T06:19:17.630Z,37.39
2018-09-27T06:20:17.525Z,37.48
2018-09-27T06:21:17.480Z,37.48
2018-09-27T06:22:17.433Z,37.39
2018-09-27T06:23:17.388Z,37.58
2018-09-27T06:24:17.342Z,37.39
2018-09-27T06:25:17.297Z,37.39
2018-09-27T06:26:17.250Z,37.68
2018-09-27T06:27:17.205Z,38.26
2018-09-27T06:28:17.159Z,38.33
2018-09-27T06:29:17.114Z,38.91
2018-09-27T06:30:17.068Z,39.39
2018-09-27T06:31:17.027Z,39.66
2018-09-27T06:32:16.976Z,40.81
2018-09-27T06:33:16.930Z,41.11
2018-09-27T06:34:16.885Z,41.49
2018-09-27T06:35:16.840Z,41.86
2018-09-27T06:36:16.792Z,42.14
2018-09-27T06:37:16.747Z,42.53
2018-09-27T06:38:16.704Z,43.01
2018-09-27T06:39:16.680Z,43.30
2018-09-27T06:40:16.608Z,43.20
2018-09-27T06:41:16.595Z,43.30
2018-09-27T06:42:16.515Z,43.30
2018-09-27T06:43:16.471Z,43.49
2018-09-27T06:44:16.423Z,43.68
2018-09-27T06:45:16.377Z,44.35
2018-09-27T06:46:16.332Z,44.05
2018-09-27T06:47:16.285Z,44.34
2018-09-27T06:48:16.260Z,44.05
2018-09-27T06:49:16.197Z,44.34
2018-09-27T06:50:16.146Z,44.53
2018-09-27T06:51:16.100Z,44.82
2018-09-27T06:52:16.053Z,45.10
2018-09-27T06:53:16.007Z,45.29
2018-09-27T06:54:15.960Z,45.10
2018-09-27T06:55:16.258Z,45.49
2018-09-27T06:56:15.938Z,45.20
2018-09-27T06:57:15.820Z,45.29
2018-09-27T06:58:15.775Z,45.29
2018-09-27T06:59:15.729Z,45.20
2018-09-27T07:00:15.682Z,45.01
2018-09-27T07:01:15.640Z,45.39
2018-09-27T07:02:15.589Z,45.10
2018-09-27T07:03:15.544Z,45.29
2018-09-27T07:04:15.497Z,45.42
2018-09-27T07:05:15.449Z,45.49
2018-09-27T07:06:15.407Z,45.20
2018-09-27T07:07:15.367Z,45.51
2018-09-27T07:08:15.411Z,45.29
2018-09-27T07:09:15.264Z,45.10
2018-09-27T07:10:15.218Z,45.03
2018-09-27T07:11:15.171Z,45.22
2018-09-27T07:12:15.180Z,45.39
2018-09-27T07:13:15.079Z,45.29
2018-09-27T07:14:15.038Z,45.68
2018-09-27T07:15:14.988Z,45.78
2018-09-27T07:16:14.940Z,45.97
2018-09-27T07:17:14.893Z,46.06
2018-09-27T07:18:14.847Z,46.26
2018-09-27T07:19:14.801Z,46.26
2018-09-27T07:20:14.783Z,46.45
2018-09-27T07:21:14.708Z,46.55
2018-09-27T07:22:14.661Z,46.45
2018-09-27T07:23:14.621Z,46.06
2018-09-27T07:24:14.567Z,46.16
2018-09-27T07:25:14.607Z,46.26
2018-09-27T07:26:14.475Z,46.45
2018-09-27T07:27:14.429Z,46.45
2018-09-27T07:28:14.383Z,46.36
2018-09-27T07:29:14.336Z,46.36
2018-09-27T07:30:14.289Z,46.16
2018-09-27T07:31:14.335Z,46.36
2018-09-27T07:32:14.197Z,46.16
2018-09-27T07:33:14.151Z,46.45
2018-09-27T07:34:14.103Z,46.06
2018-09-27T07:35:14.064Z,46.45
2018-09-27T07:36:14.009Z,46.74
2018-09-27T07:37:13.965Z,46.36
2018-09-27T07:38:13.917Z,46.45
2018-09-27T07:39:13.871Z,46.36
2018-09-27T07:40:13.826Z,46.45
2018-09-27T07:41:13.777Z,46.45
2018-09-27T07:42:13.731Z,46.74
2018-09-27T07:43:13.687Z,46.26
2018-09-27T07:44:13.638Z,46.45
2018-09-27T07:45:13.590Z,46.45
2018-09-27T07:46:13.546Z,46.64
2018-09-27T07:47:13.499Z,46.84
2018-09-27T07:48:13.451Z,46.64
2018-09-27T07:49:13.406Z,46.74
2018-09-27T07:50:13.361Z,46.55
2018-09-27T07:51:13.318Z,46.45
2018-09-27T07:52:13.266Z,46.64
2018-09-27T07:53:13.222Z,46.64
2018-09-27T07:54:13.235Z,46.74
2018-09-27T07:55:13.130Z,46.84
2018-09-27T07:56:13.085Z,46.64
2018-09-27T07:57:13.035Z,46.64
2018-09-27T07:58:12.990Z,46.45
2018-09-27T07:59:12.949Z,46.45
2018-09-27T08:00:12.896Z,46.67
2018-09-27T08:01:12.850Z,46.74
2018-09-27T08:02:12.804Z,46.64
2018-09-27T08:03:12.862Z,46.77
2018-09-27T08:04:12.754Z,47.05
2018-09-27T08:05:12.665Z,46.47
2018-09-27T08:06:12.619Z,46.86
2018-09-27T08:07:12.573Z,46.67
2018-09-27T08:08:12.525Z,46.86
2018-09-27T08:09:12.480Z,46.77
2018-09-27T08:10:12.443Z,46.86
2018-09-27T08:11:12.439Z,46.86
2018-09-27T08:12:12.343Z,47.15
2018-09-27T08:13:12.295Z,46.77
2018-09-27T08:14:12.249Z,46.86
2018-09-27T08:15:12.206Z,46.95
2018-09-27T08:16:12.156Z,46.67
2018-09-27T08:17:12.148Z,46.77
2018-09-27T08:18:12.065Z,46.59
2018-09-27T08:19:12.020Z,46.40
2018-09-27T08:20:11.973Z,46.59
2018-09-27T08:21:12.017Z,46.50
2018-09-27T08:22:11.883Z,46.31
2018-09-27T08:23:11.840Z,46.21
2018-09-27T08:24:11.833Z,46.04
2018-09-27T08:25:11.747Z,46.04
2018-09-27T08:26:11.702Z,46.23
2018-09-27T08:27:11.657Z,46.23
2018-09-27T08:28:11.610Z,46.42
2018-09-27T08:29:11.567Z,46.14
2018-09-27T08:30:11.523Z,46.33
2018-09-27T08:31:11.525Z,46.23
2018-09-27T08:32:11.434Z,46.62
2018-09-27T08:33:11.389Z,46.42
2018-09-27T08:34:11.345Z,46.14
2018-09-27T08:35:11.302Z,46.33
2018-09-27T08:36:11.265Z,46.14
2018-09-27T08:37:11.212Z,45.84
2018-09-27T08:38:11.178Z,45.75
2018-09-27T08:39:11.125Z,45.94
2018-09-27T08:40:11.081Z,45.77
2018-09-27T08:41:11.035Z,45.87
2018-09-27T08:42:10.993Z,45.68
2018-09-27T08:43:10.949Z,45.77
2018-09-27T08:44:10.904Z,45.87
2018-09-27T08:45:11.104Z,45.87
2018-09-27T08:46:10.817Z,45.97
2018-09-27T08:47:10.775Z,46.25
2018-09-27T08:48:10.730Z,46.35
2018-09-27T08:49:10.683Z,46.06
2018-09-27T08:50:10.644Z,46.15
2018-09-27T08:51:10.597Z,46.25
2018-09-27T08:52:10.552Z,46.15
2018-09-27T08:53:10.508Z,46.25
2018-09-27T08:54:10.464Z,46.35
2018-09-27T08:55:10.422Z,46.25
2018-09-27T08:56:10.473Z,46.45
2018-09-27T08:57:10.330Z,46.25
2018-09-27T08:58:10.285Z,46.25
2018-09-27T08:59:10.241Z,46.55
2018-09-27T09:00:10.195Z,46.35
2018-09-27T09:01:10.152Z,46.64
2018-09-27T09:02:10.109Z,46.73
2018-09-27T09:03:10.063Z,46.93
2018-09-27T09:04:10.017Z,46.83
2018-09-27T09:05:09.972Z,47.80
2018-09-27T09:06:09.928Z,47.70
2018-09-27T09:07:09.883Z,47.70
2018-09-27T09:08:09.838Z,47.70
2018-09-27T09:09:09.793Z,47.60
2018-09-27T09:10:09.748Z,47.41
2018-09-27T09:11:09.704Z,47.41
2018-09-27T09:12:09.712Z,46.93
2018-09-27T09:13:09.614Z,46.73
2018-09-27T09:14:09.669Z,47.03
2018-09-27T09:15:09.523Z,46.83
2018-09-27T09:16:09.479Z,47.22
2018-09-27T09:17:09.434Z,46.73
2018-09-27T09:18:09.389Z,46.73
2018-09-27T09:19:09.444Z,47.12
2018-09-27T09:20:09.297Z,47.12
2018-09-27T09:21:09.253Z,46.64
2018-09-27T09:22:09.213Z,46.83
2018-09-27T09:23:09.163Z,47.12
2018-09-27T09:24:09.117Z,47.51
2018-09-27T09:25:09.072Z,47.41
2018-09-27T09:26:09.146Z,47.12
2018-09-27T09:27:08.982Z,47.12
2018-09-27T09:28:08.937Z,47.12
2018-09-27T09:29:08.891Z,47.03
2018-09-27T09:30:08.847Z,47.31
2018-09-27T09:31:08.801Z,46.93
2018-09-27T09:32:08.757Z,47.51
2018-09-27T09:33:08.710Z,47.63
2018-09-27T09:34:08.664Z,47.24
2018-09-27T09:35:08.620Z,47.60
2018-09-27T09:36:08.573Z,47.31
2018-09-27T09:37:08.528Z,47.89
2018-09-27T09:38:08.483Z,48.08
2018-09-27T09:39:08.439Z,47.99
2018-09-27T09:40:08.392Z,48.08
2018-09-27T09:41:08.345Z,48.08
2018-09-27T09:42:08.301Z,48.08
2018-09-27T09:43:08.258Z,48.18
2018-09-27T09:44:08.211Z,47.99
2018-09-27T09:45:08.175Z,48.08
2018-09-27T09:46:08.119Z,48.57
2018-09-27T09:47:08.074Z,48.18
2018-09-27T09:48:08.028Z,48.76
2018-09-27T09:49:07.982Z,48.69
2018-09-27T09:50:08.016Z,48.76
2018-09-27T09:51:07.893Z,48.01
2018-09-27T09:52:07.848Z,48.40
2018-09-27T09:53:07.809Z,48.08
2018-09-27T09:54:07.756Z,48.30
2018-09-27T09:55:07.710Z,48.69
2018-09-27T09:56:07.665Z,48.49
2018-09-27T09:57:07.619Z,48.49
2018-09-27T09:58:07.574Z,48.30
2018-09-27T09:59:07.535Z,48.30
2018-09-27T10:00:07.482Z,48.21
2018-09-27T10:01:07.438Z,48.40
2018-09-27T10:02:07.392Z,48.30
2018-09-27T10:03:07.346Z,48.49
2018-09-27T10:04:07.301Z,48.59
2018-09-27T10:05:07.254Z,48.49
2018-09-27T10:06:07.211Z,48.69
2018-09-27T10:07:07.165Z,48.69
2018-09-27T10:08:07.119Z,48.59
2018-09-27T10:09:07.074Z,48.79
2018-09-27T10:10:07.029Z,48.69
2018-09-27T10:11:06.983Z,48.88
2018-09-27T10:12:06.937Z,49.37
2018-09-27T10:13:06.894Z,49.75
2018-09-27T10:14:06.847Z,49.82
2018-09-27T10:15:06.801Z,49.84
2018-09-27T10:16:06.755Z,49.94
2018-09-27T10:17:06.710Z,49.27
2018-09-27T10:18:06.665Z,49.46
2018-09-27T10:19:06.620Z,49.27
2018-09-27T10:20:06.573Z,49.37
2018-09-27T10:21:06.531Z,49.17
2018-09-27T10:22:06.532Z,49.17
2018-09-27T10:23:06.438Z,49.37
2018-09-27T10:24:06.392Z,49.84
2018-09-27T10:25:06.346Z,49.75
2018-09-27T10:26:06.302Z,49.75
2018-09-27T10:27:06.265Z,49.46
2018-09-27T10:28:06.209Z,49.46
2018-09-27T10:29:06.164Z,50.04
2018-09-27T10:30:06.119Z,50.13
2018-09-27T10:31:06.074Z,50.23
2018-09-27T10:32:06.029Z,50.23
2018-09-27T10:33:05.982Z,49.84
2018-09-27T10:34:05.960Z,50.23
2018-09-27T10:35:05.892Z,49.94
2018-09-27T10:36:05.945Z,50.23
2018-09-27T10:37:05.800Z,50.13
2018-09-27T10:38:05.754Z,50.32
2018-09-27T10:39:05.710Z,50.23
2018-09-27T10:40:05.663Z,50.04
2018-09-27T10:41:05.620Z,50.13
2018-09-27T10:42:05.572Z,50.13
2018-09-27T10:43:05.528Z,50.32
2018-09-27T10:44:05.482Z,50.42
2018-09-27T10:45:05.435Z,50.13
2018-09-27T10:46:05.390Z,50.13
2018-09-27T10:47:05.346Z,50.13
2018-09-27T10:48:05.300Z,50.04
2018-09-27T10:49:05.254Z,50.23
2018-09-27T10:50:05.209Z,50.04
2018-09-27T10:51:05.163Z,50.13
2018-09-27T10:52:05.117Z,50.32
2018-09-27T10:53:05.074Z,50.04
2018-09-27T10:54:05.027Z,50.13
2018-09-27T10:55:04.982Z,50.13
2018-09-27T10:56:04.936Z,50.04
2018-09-27T10:57:04.925Z,50.13
2018-09-27T10:58:04.845Z,50.04
2018-09-27T10:59:04.801Z,50.04
2018-09-27T11:00:04.771Z,50.23
2018-09-27T11:01:04.708Z,50.62
2018-09-27T11:02:04.664Z,50.62
2018-09-27T11:03:04.617Z,50.52
2018-09-27T11:04:04.657Z,51.00
2018-09-27T11:05:04.527Z,51.00
2018-09-27T11:06:04.481Z,51.10
2018-09-27T11:07:04.436Z,50.71
2018-09-27T11:08:04.391Z,50.62
2018-09-27T11:09:04.346Z,50.52
2018-09-27T11:10:04.300Z,50.62
2018-09-27T11:11:04.318Z,50.62
2018-09-27T11:12:04.209Z,50.52
2018-09-27T11:13:04.164Z,50.52
2018-09-27T11:14:04.118Z,50.42
2018-09-27T11:15:04.073Z,50.42
2018-09-27T11:16:04.027Z,50.42
2018-09-27T11:17:03.981Z,50.90
2018-09-27T11:18:03.936Z,50.81
2018-09-27T11:19:03.891Z,51.20
2018-09-27T11:20:03.845Z,51.68
2018-09-27T11:21:03.800Z,51.39
2018-09-27T11:22:03.862Z,51.00
2018-09-27T11:23:03.713Z,51.48
2018-09-27T11:24:03.664Z,51.77
2018-09-27T11:25:03.617Z,51.77
2018-09-27T11:26:03.572Z,51.58
2018-09-27T11:27:03.529Z,51.77
2018-09-27T11:28:03.482Z,51.39
2018-09-27T11:29:03.498Z,52.06
2018-09-27T11:30:03.392Z,52.06
2018-09-27T11:31:03.347Z,51.77
2018-09-27T11:32:03.301Z,51.48
2018-09-27T11:33:03.317Z,51.68
2018-09-27T11:34:03.211Z,51.87
2018-09-27T11:35:03.167Z,52.06
2018-09-27T11:36:03.120Z,52.16
2018-09-27T11:37:03.074Z,51.97
2018-09-27T11:38:03.029Z,51.87
2018-09-27T11:39:02.984Z,52.06
2018-09-27T11:40:02.941Z,52.25
2018-09-27T11:41:02.892Z,51.97
2018-09-27T11:42:02.849Z,51.87
2018-09-27T11:43:02.803Z,51.87
2018-09-27T11:44:02.803Z,51.97
2018-09-27T11:45:02.711Z,51.87
2018-09-27T11:46:02.664Z,52.06
2018-09-27T11:47:02.629Z,51.68
2018-09-27T11:48:02.574Z,52.16
2018-09-27T11:49:02.599Z,52.06
2018-09-27T11:50:02.648Z,52.06
2018-09-27T11:51:02.438Z,52.06
2018-09-27T11:52:02.392Z,52.55
2018-09-27T11:53:02.346Z,52.64
2018-09-27T11:54:02.349Z,52.45
2018-09-27T11:55:02.323Z,52.45
2018-09-27T11:56:02.228Z,52.45
2018-09-27T11:57:02.165Z,52.45
2018-09-27T11:58:02.123Z,52.64
2018-09-27T11:59:02.128Z,52.45
2018-09-27T12:00:02.029Z,52.83
2018-09-27T12:01:01.990Z,53.03
2018-09-27T12:02:01.955Z,53.03
2018-09-27T12:03:01.894Z,52.64
2018-09-27T12:04:01.848Z,52.83
2018-09-27T12:05:01.803Z,52.83
2018-09-27T12:06:01.758Z,52.93
2018-09-27T12:07:01.712Z,52.45
2018-09-27T12:08:01.866Z,52.64
2018-09-27T12:09:01.623Z,52.83
2018-09-27T12:10:01.577Z,52.55
2018-09-27T12:11:01.530Z,52.45
2018-09-27T12:12:01.573Z,52.35
2018-09-27T12:13:01.440Z,52.55
2018-09-27T12:14:01.394Z,52.25
2018-09-27T12:15:01.351Z,52.45
2018-09-27T12:16:01.303Z,52.64
2018-09-27T12:17:01.258Z,52.64
2018-09-27T12:18:01.215Z,52.64
2018-09-27T12:19:01.167Z,52.55
2018-09-27T12:20:01.200Z,52.55
2018-09-27T12:21:01.075Z,52.55
2018-09-27T12:22:01.031Z,52.55
2018-09-27T12:23:01.126Z,52.25
2018-09-27T12:24:00.940Z,52.35
2018-09-27T12:25:00.894Z,52.35
2018-09-27T12:26:00.849Z,52.45
2018-09-27T12:27:00.805Z,52.55
2018-09-27T12:28:00.757Z,52.45
2018-09-27T12:29:00.725Z,52.73
2018-09-27T12:30:00.668Z,52.55
2018-09-27T12:31:00.645Z,52.45
2018-09-27T12:32:00.576Z,52.45
2018-09-27T12:33:00.531Z,52.35
2018-09-27T12:34:00.504Z,52.45
2018-09-27T12:35:00.441Z,52.28
2018-09-27T12:36:00.400Z,52.16
2018-09-27T12:37:00.350Z,51.87
2018-09-27T12:38:00.305Z,52.06
2018-09-27T12:39:00.300Z,51.77
2018-09-27T12:40:00.215Z,51.77
2018-09-27T12:41:00.167Z,51.87
2018-09-27T12:42:00.345Z,51.58
2018-09-27T12:43:00.159Z,51.87
2018-09-27T12:44:00.039Z,51.41
2018-09-27T12:44:59.995Z,51.61
2018-09-27T12:46:00.069Z,51.77
2018-09-27T12:46:59.959Z,51.68
2018-09-27T12:47:59.872Z,51.58
2018-09-27T12:48:59.891Z,51.68
2018-09-27T12:49:59.760Z,51.58
2018-09-27T12:50:59.771Z,51.68
2018-09-27T12:51:59.859Z,51.68